Howard City, Michigan
Current Conditions -  °F | °C
As of 7:14 PM on Friday 24 Oct 2014 (Local Time) from KRQB Reporting Station
Overcast Overcast  
Wind Chill: 53°   Ceiling: 1100
Heat Index: 53°   Visibility: 10mi
Dew Point: 53°   Wind: 7mph
Humidity: 99%   Direction: 230°SW
Pressure: 29.97"   Gusts: NA
Location:  43.4°N, 85.47°W
Report Text: KRQB 242314Z AUTO 23006KT 10SM OVC011 12/12 A2997 RMK AO2 T01170115
Loading
Personal Weather Stations






























Interactive Weather Map
Tropical Storm Tracking
New forecast layout! Learn more

10-Day Weather Forecast

Advertisements
Track Severe Weather on mobile